Time;durP1;ratioP1;P1;durP2;ratioP2;P2;SDS_P1;SDS_P2;PMS_P1;PMS_P2;Temp;Humidity;BMP_temperature;BMP_pressure;BME280_temperature;BME280_humidity;BME280_pressure;Samples;Min_cycle;Max_cycle;Signal;HPM_P1;HPM_P2
2023/03/22 00:01:11;;;;;;;17.42;13.80;;;11.30;99.90;;;;;;2090087;28;20122;-66
2023/03/22 00:02:11;;;;;;;19.70;14.43;;;11.30;99.90;;;;;;2092751;28;20384;-65
2023/03/22 00:03:12;;;;;;;19.10;14.18;;;11.30;99.90;;;;;;2099049;28;20480;-68
2023/03/22 00:04:12;;;;;;;18.30;14.00;;;11.30;99.90;;;;;;2098977;28;20032;-67
2023/03/22 00:05:13;;;;;;;16.83;14.05;;;11.20;99.90;;;;;;2099153;28;20051;-68
2023/03/22 00:06:15;;;;;;;18.05;13.95;;;11.20;99.90;;;;;;2089857;28;20111;-68
2023/03/22 00:07:15;;;;;;;15.98;12.55;;;11.20;99.90;;;;;;2086266;28;20466;-67
2023/03/22 00:08:16;;;;;;;16.52;13.38;;;11.20;99.90;;;;;;2098087;28;20028;-67
2023/03/22 00:09:17;;;;;;;16.48;12.55;;;11.20;99.90;;;;;;2094229;28;20139;-67
2023/03/22 00:10:17;;;;;;;18.10;13.32;;;11.20;99.90;;;;;;2089600;28;20238;-67
2023/03/22 00:11:19;;;;;;;16.90;13.05;;;11.20;99.90;;;;;;2089441;28;20044;-66
2023/03/22 00:12:20;;;;;;;16.88;12.95;;;11.20;99.90;;;;;;2096460;28;20059;-66
2023/03/22 00:13:20;;;;;;;16.95;13.23;;;11.20;99.90;;;;;;2098680;28;20489;-66
2023/03/22 00:14:21;;;;;;;16.27;12.75;;;11.20;99.90;;;;;;2093885;28;20549;-66
2023/03/22 00:15:22;;;;;;;16.40;13.35;;;11.20;99.90;;;;;;2099491;28;20082;-67
2023/03/22 00:16:23;;;;;;;16.15;12.77;;;11.20;99.90;;;;;;2082896;28;20471;-66
2023/03/22 00:17:24;;;;;;;14.57;11.90;;;11.20;99.90;;;;;;2089840;28;20066;-66
2023/03/22 00:18:25;;;;;;;17.67;13.48;;;11.20;99.90;;;;;;2099004;28;20024;-66
2023/03/22 00:19:27;;;;;;;17.00;13.20;;;11.20;99.90;;;;;;2096851;28;20405;-66
2023/03/22 00:20:35;;;;;;;17.27;12.50;;;11.20;99.90;;;;;;2097094;28;20024;-66
2023/03/22 00:21:36;;;;;;;16.67;12.60;;;11.20;99.90;;;;;;2088562;28;20037;-66
2023/03/22 00:22:38;;;;;;;17.25;13.10;;;11.20;99.90;;;;;;2084415;28;20468;-67
2023/03/22 00:23:39;;;;;;;17.70;12.45;;;11.20;99.90;;;;;;2084148;28;20032;-66
2023/03/22 00:24:39;;;;;;;15.43;12.55;;;11.20;99.90;;;;;;2091763;28;20017;-66
2023/03/22 00:25:41;;;;;;;17.58;13.23;;;11.30;99.90;;;;;;2094039;28;20039;-66
2023/03/22 00:26:42;;;;;;;21.75;14.75;;;11.20;99.90;;;;;;2093095;28;20028;-67
2023/03/22 00:27:43;;;;;;;24.73;15.75;;;11.30;99.90;;;;;;2085088;28;20909;-66
2023/03/22 00:28:43;;;;;;;26.63;16.65;;;11.30;99.90;;;;;;2080904;28;20040;-66
2023/03/22 00:29:44;;;;;;;32.80;19.15;;;11.30;99.90;;;;;;2086344;28;20037;-66
2023/03/22 00:30:58;;;;;;;46.70;24.05;;;11.20;99.90;;;;;;2083237;28;20029;-67
2023/03/22 00:32:01;;;;;;;47.95;25.65;;;11.30;99.90;;;;;;2093428;28;20024;-67
2023/03/22 00:33:02;;;;;;;51.35;26.80;;;11.30;99.90;;;;;;2100359;28;20080;-66
2023/03/22 00:34:02;;;;;;;51.40;26.52;;;11.30;99.90;;;;;;2093640;28;20538;-66
2023/03/22 00:35:05;;;;;;;54.38;28.15;;;11.20;99.90;;;;;;2090978;28;20343;-66
2023/03/22 00:36:08;;;;;;;51.55;27.17;;;11.30;99.90;;;;;;2095747;28;20032;-67
2023/03/22 00:37:09;;;;;;;54.17;26.95;;;11.20;99.90;;;;;;2094225;28;20319;-67
2023/03/22 00:38:12;;;;;;;52.22;27.83;;;11.20;99.90;;;;;;2086618;28;20494;-67
2023/03/22 00:39:13;;;;;;;53.00;27.15;;;11.20;99.90;;;;;;2091331;28;20151;-67
2023/03/22 00:40:14;;;;;;;53.45;28.02;;;11.30;99.90;;;;;;2090291;28;20058;-66
2023/03/22 00:41:17;;;;;;;49.47;27.33;;;11.20;99.90;;;;;;2084948;28;20507;-66
2023/03/22 00:42:18;;;;;;;45.85;25.48;;;11.20;99.90;;;;;;2084123;28;20032;-65
2023/03/22 00:43:22;;;;;;;45.25;24.95;;;11.20;99.90;;;;;;2098045;28;20085;-66
2023/03/22 00:44:24;;;;;;;42.80;24.58;;;11.20;99.90;;;;;;2093683;28;20104;-67
2023/03/22 00:45:25;;;;;;;41.22;22.83;;;11.20;99.90;;;;;;2091261;28;20035;-65
2023/03/22 00:46:26;;;;;;;38.85;22.33;;;11.20;99.90;;;;;;2093575;28;20042;-66
2023/03/22 00:47:27;;;;;;;36.15;20.92;;;11.20;99.90;;;;;;2100405;28;20066;-66
2023/03/22 00:48:27;;;;;;;33.90;20.00;;;11.20;99.90;;;;;;2089856;28;20028;-66
2023/03/22 00:49:30;;;;;;;33.10;19.90;;;11.20;99.90;;;;;;2088552;28;20043;-66
2023/03/22 00:50:30;;;;;;;31.83;19.00;;;11.20;99.90;;;;;;2084112;28;20513;-67
2023/03/22 00:51:31;;;;;;;32.60;19.42;;;11.20;99.90;;;;;;2086442;28;20025;-66
2023/03/22 00:52:32;;;;;;;32.67;19.23;;;11.20;99.90;;;;;;2082996;28;20132;-67
2023/03/22 00:53:35;;;;;;;34.58;19.92;;;11.20;99.90;;;;;;2083016;28;20033;-66
2023/03/22 00:54:35;;;;;;;32.95;19.70;;;11.10;99.90;;;;;;2085238;28;20079;-66
2023/03/22 00:55:36;;;;;;;29.17;18.33;;;11.10;99.90;;;;;;2087715;28;20117;-67
2023/03/22 00:56:37;;;;;;;28.70;17.80;;;11.00;99.90;;;;;;2086256;28;20037;-66
2023/03/22 00:57:45;;;;;;;25.45;16.40;;;11.00;99.90;;;;;;2078880;28;20538;-67
2023/03/22 00:58:46;;;;;;;24.90;16.38;;;11.00;99.90;;;;;;2074764;28;20018;-66
2023/03/22 00:59:47;;;;;;;24.75;16.40;;;10.90;99.90;;;;;;2076362;28;20084;-66
2023/03/22 01:00:48;;;;;;;24.52;15.82;;;10.90;99.90;;;;;;2091080;28;20047;-67
2023/03/22 01:01:48;;;;;;;23.63;16.17;;;10.90;99.90;;;;;;2082784;28;20029;-66
2023/03/22 01:02:52;;;;;;;22.67;15.45;;;10.80;99.90;;;;;;2082774;28;20036;-67
2023/03/22 01:03:54;;;;;;;22.73;15.15;;;10.80;99.90;;;;;;2084547;28;20484;-67
2023/03/22 01:04:55;;;;;;;21.15;14.55;;;10.80;99.90;;;;;;2090962;28;20017;-67
2023/03/22 01:05:56;;;;;;;20.17;14.25;;;10.80;99.90;;;;;;2093270;28;20043;-70
2023/03/22 01:07:02;;;;;;;19.88;14.30;;;10.70;99.90;;;;;;2100027;28;20027;-67
2023/03/22 01:08:07;;;;;;;21.70;14.68;;;10.70;99.90;;;;;;2090829;28;20024;-67
2023/03/22 01:09:13;;;;;;;19.80;14.10;;;10.70;99.90;;;;;;2091753;28;20025;-67
2023/03/22 01:10:14;;;;;;;19.35;14.00;;;10.70;99.90;;;;;;2088201;28;20669;-67
2023/03/22 01:11:16;;;;;;;17.48;13.38;;;10.70;99.90;;;;;;2091129;28;20013;-68
2023/03/22 01:12:18;;;;;;;16.95;13.30;;;10.70;99.90;;;;;;2101751;28;20028;-67
2023/03/22 01:13:19;;;;;;;18.08;13.20;;;10.70;99.90;;;;;;2100164;28;20055;-67
2023/03/22 01:14:19;;;;;;;16.85;13.05;;;10.60;99.90;;;;;;2099989;28;20067;-67
2023/03/22 01:15:22;;;;;;;17.50;13.18;;;10.60;99.90;;;;;;2082880;28;20482;-68
2023/03/22 01:16:23;;;;;;;17.35;12.93;;;10.60;99.90;;;;;;2084774;28;20411;-67
2023/03/22 01:17:24;;;;;;;17.90;12.88;;;10.50;99.90;;;;;;2069907;28;20367;-67
2023/03/22 01:18:24;;;;;;;16.73;12.75;;;10.50;99.90;;;;;;2074493;28;20423;-68
2023/03/22 01:19:26;;;;;;;20.55;13.63;;;10.50;99.90;;;;;;2091183;28;20033;-67
2023/03/22 01:20:27;;;;;;;18.17;12.95;;;10.40;99.90;;;;;;2099937;28;20040;-67
2023/03/22 01:21:28;;;;;;;18.27;12.77;;;10.40;99.90;;;;;;2090967;28;20028;-67
2023/03/22 01:22:28;;;;;;;17.20;12.95;;;10.40;99.90;;;;;;2080759;28;20033;-67
2023/03/22 01:23:29;;;;;;;16.80;13.00;;;10.40;99.90;;;;;;2089593;28;20492;-67
2023/03/22 01:24:30;;;;;;;18.25;12.80;;;10.30;99.90;;;;;;2099698;28;20033;-67
2023/03/22 01:25:30;;;;;;;16.23;11.85;;;10.30;99.90;;;;;;2091039;28;20035;-68
2023/03/22 01:26:31;;;;;;;16.40;12.55;;;10.30;99.90;;;;;;2092930;28;20098;-68
2023/03/22 01:27:32;;;;;;;17.98;12.63;;;10.30;99.90;;;;;;2095020;28;20037;-67
2023/03/22 01:28:32;;;;;;;15.95;12.45;;;10.30;99.90;;;;;;2090731;28;20423;-67
2023/03/22 01:29:34;;;;;;;15.75;11.88;;;10.30;99.90;;;;;;2090668;28;20028;-67
2023/03/22 01:30:37;;;;;;;14.93;11.57;;;10.30;99.90;;;;;;2092557;28;20512;-67
2023/03/22 01:31:37;;;;;;;16.60;11.60;;;10.30;99.90;;;;;;2083896;28;20021;-67
2023/03/22 01:32:38;;;;;;;15.43;11.20;;;10.20;99.90;;;;;;2088846;28;20169;-67
2023/03/22 01:33:39;;;;;;;15.73;11.80;;;10.20;99.90;;;;;;2087739;28;20037;-67
2023/03/22 01:34:40;;;;;;;15.10;11.43;;;10.20;99.90;;;;;;2092270;28;20548;-68
2023/03/22 01:35:41;;;;;;;16.10;11.35;;;10.20;99.90;;;;;;2084582;28;20120;-67
2023/03/22 01:36:42;;;;;;;13.50;10.88;;;10.10;99.90;;;;;;2076946;28;20417;-67
2023/03/22 01:37:43;;;;;;;14.73;11.15;;;10.10;99.90;;;;;;2086419;28;20032;-67
2023/03/22 01:38:44;;;;;;;16.23;11.70;;;10.10;99.90;;;;;;2099843;28;20024;-66
2023/03/22 01:39:45;;;;;;;15.95;11.82;;;10.10;99.90;;;;;;2090770;28;20086;-66
2023/03/22 01:40:48;;;;;;;16.52;11.90;;;10.00;99.90;;;;;;2081892;28;20120;-67
2023/03/22 01:41:48;;;;;;;16.15;12.27;;;10.00;99.90;;;;;;2086060;28;20021;-67
2023/03/22 01:42:52;;;;;;;17.15;12.23;;;9.90;99.90;;;;;;2090821;28;20497;-66
2023/03/22 01:44:13;;;;;;;17.95;12.73;;;9.90;99.90;;;;;;2082925;28;20065;-67
2023/03/22 01:45:14;;;;;;;18.00;12.80;;;9.90;99.90;;;;;;2085079;28;20021;-66
2023/03/22 01:46:16;;;;;;;17.77;13.25;;;9.90;99.90;;;;;;2090781;28;20069;-67
2023/03/22 01:47:16;;;;;;;18.83;13.05;;;9.80;99.90;;;;;;2090728;28;20423;-66
2023/03/22 01:48:20;;;;;;;18.63;13.88;;;9.80;99.90;;;;;;2100371;28;20028;-66
2023/03/22 01:49:30;;;;;;;16.58;12.73;;;9.80;99.90;;;;;;2093451;28;20028;-67
2023/03/22 01:50:31;;;;;;;18.83;13.05;;;9.80;99.90;;;;;;2092758;28;20032;-66
2023/03/22 01:51:32;;;;;;;18.45;13.38;;;9.70;99.90;;;;;;2090524;28;20093;-66
2023/03/22 01:52:55;;;;;;;18.45;13.90;;;9.70;99.90;;;;;;2085082;28;20037;-65
2023/03/22 01:54:05;;;;;;;19.60;13.45;;;9.70;99.90;;;;;;2090658;28;20034;-67
2023/03/22 01:55:08;;;;;;;18.77;13.98;;;9.70;99.90;;;;;;2089828;28;20021;-66
2023/03/22 01:56:24;;;;;;;20.25;13.27;;;9.70;99.90;;;;;;2090733;28;20098;-67
2023/03/22 01:57:25;;;;;;;16.85;12.32;;;9.60;99.90;;;;;;2074835;28;20148;-67
2023/03/22 01:58:26;;;;;;;17.60;12.50;;;9.60;99.90;;;;;;2076372;28;20074;-67
2023/03/22 01:59:31;;;;;;;17.73;12.73;;;9.60;99.90;;;;;;2084766;28;20024;-67
2023/03/22 02:00:52;;;;;;;19.40;13.43;;;9.50;99.90;;;;;;2086094;28;20430;-68
2023/03/22 02:02:18;;;;;;;19.23;13.85;;;9.50;99.90;;;;;;2093036;28;20112;-68
2023/03/22 02:03:40;;;;;;;18.55;13.00;;;9.50;99.90;;;;;;2090624;28;20269;-67
2023/03/22 02:04:41;;;;;;;17.75;11.75;;;9.50;99.90;;;;;;2078185;28;20823;-66
2023/03/22 02:05:43;;;;;;;17.40;12.30;;;9.50;99.90;;;;;;2082232;28;20083;-67
2023/03/22 02:06:45;;;;;;;15.07;11.18;;;9.40;99.90;;;;;;2084675;28;20029;-70
2023/03/22 02:07:51;;;;;;;16.05;11.75;;;9.50;99.90;;;;;;2086299;28;20040;-70
2023/03/22 02:08:56;;;;;;;14.27;10.60;;;9.40;99.90;;;;;;2078817;28;20036;-69
2023/03/22 02:09:58;;;;;;;15.70;10.93;;;9.40;99.90;;;;;;2072562;28;20774;-72
2023/03/22 02:11:12;;;;;;;17.55;11.35;;;9.40;99.90;;;;;;2083395;28;20412;-69
2023/03/22 02:12:47;;;;;;;16.48;10.85;;;9.40;99.90;;;;;;2091483;28;20032;-69
2023/03/22 02:14:35;;;;;;;14.73;10.50;;;9.50;99.90;;;;;;2085215;28;20487;-69
2023/03/22 02:15:59;;;;;;;16.38;10.70;;;9.50;99.90;;;;;;2091969;28;20029;-70
2023/03/22 02:17:19;;;;;;;15.30;10.40;;;9.50;99.90;;;;;;2087919;28;20036;-73
2023/03/22 02:19:04;;;;;;;16.75;10.32;;;9.50;99.90;;;;;;2085246;28;20082;-73
2023/03/22 02:20:30;;;;;;;14.40;9.88;;;9.50;99.90;;;;;;2089860;28;20028;-73
2023/03/22 02:22:01;;;;;;;13.43;9.32;;;9.60;99.90;;;;;;2079992;28;20492;-72
2023/03/22 02:23:26;;;;;;;12.77;9.30;;;9.60;99.90;;;;;;2078766;28;20036;-73
2023/03/22 02:24:45;;;;;;;13.90;8.75;;;9.60;99.90;;;;;;2089281;28;20580;-73
2023/03/22 02:26:04;;;;;;;12.77;9.07;;;9.50;99.90;;;;;;2090306;28;20033;-73
2023/03/22 02:27:34;;;;;;;14.98;9.25;;;9.50;99.90;;;;;;2087687;28;20075;-74
2023/03/22 02:28:57;;;;;;;16.88;9.60;;;9.50;99.90;;;;;;2084446;28;20033;-73
2023/03/22 02:30:16;;;;;;;13.07;8.73;;;9.50;99.90;;;;;;2087281;28;20031;-74
2023/03/22 02:31:45;;;;;;;14.88;8.93;;;9.50;99.90;;;;;;2093967;28;20032;-73
2023/03/22 02:32:55;;;;;;;14.35;8.55;;;9.50;99.90;;;;;;2087265;28;20185;-73
2023/03/22 02:34:14;;;;;;;14.15;8.80;;;9.60;99.90;;;;;;2084536;28;20032;-73
2023/03/22 02:35:57;;;;;;;13.98;8.50;;;9.60;99.90;;;;;;2080551;28;20466;-73
2023/03/22 02:37:16;;;;;;;12.68;8.50;;;9.60;99.90;;;;;;2080361;28;20050;-80
2023/03/22 02:38:56;;;;;;;12.48;8.35;;;9.60;99.90;;;;;;2089822;28;20492;-78
2023/03/22 02:40:13;;;;;;;12.98;8.60;;;9.50;99.90;;;;;;2088381;28;20021;-67
2023/03/22 02:41:22;;;;;;;13.77;8.07;;;9.50;99.90;;;;;;2082930;28;20028;-77
2023/03/22 02:42:42;;;;;;;10.50;8.00;;;9.50;99.90;;;;;;2080009;28;20025;-79
2023/03/22 02:43:48;;;;;;;13.32;8.60;;;9.50;99.90;;;;;;2081644;28;20029;-78
2023/03/22 02:44:59;;;;;;;12.73;8.85;;;9.50;99.90;;;;;;2091004;28;20570;-79
2023/03/22 02:46:12;;;;;;;11.93;8.27;;;9.50;99.90;;;;;;2082220;28;20492;-78
2023/03/22 02:47:33;;;;;;;10.30;8.00;;;9.50;99.90;;;;;;2081419;28;20518;-79
2023/03/22 02:48:54;;;;;;;13.65;8.02;;;9.50;99.90;;;;;;2096104;28;20023;-79
2023/03/22 02:50:04;;;;;;;12.15;8.52;;;9.40;99.90;;;;;;2090174;28;20430;-79
2023/03/22 02:51:14;;;;;;;12.10;7.65;;;9.40;99.90;;;;;;2082994;28;20041;-79
2023/03/22 02:52:41;;;;;;;13.85;8.30;;;9.40;99.90;;;;;;2084540;28;20052;-80
2023/03/22 02:53:53;;;;;;;12.55;7.80;;;9.40;99.90;;;;;;2090942;28;20111;-80
2023/03/22 02:55:22;;;;;;;12.35;8.10;;;9.40;99.90;;;;;;2093813;28;20028;-79
2023/03/22 02:56:38;;;;;;;11.70;8.32;;;9.40;99.90;;;;;;2086722;28;20028;-78
2023/03/22 02:58:00;;;;;;;11.73;7.80;;;9.40;99.90;;;;;;2094647;28;20140;-79
2023/03/22 02:59:05;;;;;;;11.60;7.30;;;9.40;99.90;;;;;;2099176;28;20047;-78
2023/03/22 03:00:10;;;;;;;11.88;7.80;;;9.30;99.90;;;;;;2097187;28;20031;-78
2023/03/22 03:01:18;;;;;;;11.90;7.63;;;9.30;99.90;;;;;;2096178;28;20403;-78
2023/03/22 03:02:20;;;;;;;13.70;7.65;;;9.30;99.90;;;;;;2088040;28;20029;-78
2023/03/22 03:03:24;;;;;;;9.60;7.20;;;9.30;99.90;;;;;;2086895;28;20431;-78
2023/03/22 03:04:29;;;;;;;8.82;6.68;;;9.30;99.90;;;;;;2101479;28;20192;-78
2023/03/22 03:05:33;;;;;;;10.40;7.13;;;9.30;99.90;;;;;;2096742;28;20020;-79
2023/03/22 03:06:38;;;;;;;12.48;7.68;;;9.20;99.90;;;;;;2090428;28;20055;-79
2023/03/22 03:07:43;;;;;;;10.40;7.60;;;9.20;99.90;;;;;;2081799;28;20640;-79
2023/03/22 03:08:46;;;;;;;12.57;7.57;;;9.20;99.90;;;;;;2074343;28;20905;-78
2023/03/22 03:09:47;;;;;;;11.48;7.15;;;9.20;99.90;;;;;;2072459;28;20045;-78
2023/03/22 03:10:50;;;;;;;12.23;7.60;;;9.20;99.90;;;;;;2085760;28;20017;-78
2023/03/22 03:11:52;;;;;;;9.02;7.30;;;9.20;99.90;;;;;;2090231;28;20077;-78
2023/03/22 03:12:54;;;;;;;13.52;7.72;;;9.10;99.90;;;;;;2076230;28;20065;-78
2023/03/22 03:13:55;;;;;;;10.57;7.43;;;9.10;99.90;;;;;;2080841;28;20377;-78
2023/03/22 03:14:56;;;;;;;12.15;7.72;;;9.10;99.90;;;;;;2073558;28;20028;-78
2023/03/22 03:16:00;;;;;;;10.80;7.63;;;9.10;99.90;;;;;;2077196;28;20403;-78
2023/03/22 03:17:17;;;;;;;11.10;7.68;;;9.10;99.90;;;;;;2090538;28;20035;-77
2023/03/22 03:18:45;;;;;;;11.20;7.40;;;9.10;99.90;;;;;;2095951;28;20128;-78
2023/03/22 03:19:56;;;;;;;10.20;7.50;;;9.10;99.90;;;;;;2083723;28;20032;-77
2023/03/22 03:21:03;;;;;;;11.07;7.40;;;9.10;99.90;;;;;;2083490;28;20120;-78
2023/03/22 03:22:24;;;;;;;11.68;7.43;;;9.10;99.90;;;;;;2086063;28;20104;-79
2023/03/22 03:23:35;;;;;;;12.60;7.80;;;9.10;99.90;;;;;;2095276;28;20036;-79
2023/03/22 03:24:41;;;;;;;;;;;9.00;99.90;;;;;;2100055;28;20036;-79
2023/03/22 03:25:56;;;;;;;14.35;7.78;;;9.00;99.90;;;;;;2089253;28;19966;-79
2023/03/22 03:27:19;;;;;;;11.68;8.00;;;9.00;99.90;;;;;;2091955;28;20057;-79
2023/03/22 03:28:37;;;;;;;13.55;8.18;;;9.00;99.90;;;;;;2089304;28;20147;-79
2023/03/22 03:30:00;;;;;;;16.08;8.50;;;9.00;99.90;;;;;;2084509;28;20040;-78
2023/03/22 03:31:25;;;;;;;14.02;7.97;;;9.00;99.90;;;;;;2077989;28;20032;-79
2023/03/22 03:32:37;;;;;;;13.77;7.80;;;9.00;99.90;;;;;;2064650;28;20017;-79
2023/03/22 03:33:51;;;;;;;12.60;7.60;;;9.00;99.90;;;;;;2073013;28;20619;-76
2023/03/22 03:34:56;;;;;;;10.70;7.88;;;9.00;99.90;;;;;;2092283;28;20488;-78
2023/03/22 03:36:09;;;;;;;10.98;7.50;;;9.00;99.90;;;;;;2097010;28;20093;-79
2023/03/22 03:37:23;;;;;;;11.55;7.90;;;9.00;99.90;;;;;;2085154;28;20059;-79
2023/03/22 03:38:27;;;;;;;12.45;7.60;;;9.10;99.90;;;;;;2085924;28;20052;-77
2023/03/22 03:39:31;;;;;;;12.70;7.57;;;9.00;99.90;;;;;;2091784;28;20034;-78
2023/03/22 03:40:40;;;;;;;10.65;7.40;;;9.10;99.90;;;;;;2084236;28;20021;-78
2023/03/22 03:41:42;;;;;;;11.35;7.38;;;9.10;99.90;;;;;;2084216;28;20521;-79
2023/03/22 03:42:48;;;;;;;12.43;7.50;;;9.10;99.90;;;;;;2075048;28;20039;-79
2023/03/22 03:43:50;;;;;;;10.32;6.95;;;9.00;99.90;;;;;;2090980;28;20029;-79
2023/03/22 03:44:51;;;;;;;9.48;7.07;;;9.00;99.90;;;;;;2099432;28;20028;-77
2023/03/22 03:45:52;;;;;;;10.70;6.93;;;9.00;99.90;;;;;;2090475;28;20494;-78
2023/03/22 03:46:54;;;;;;;8.85;6.47;;;9.00;99.90;;;;;;2083913;28;20063;-81
2023/03/22 03:47:59;;;;;;;9.23;6.57;;;8.90;99.90;;;;;;2090175;28;20039;-78
2023/03/22 03:49:02;;;;;;;8.75;6.38;;;8.90;99.90;;;;;;2082465;28;20082;-78
2023/03/22 03:50:05;;;;;;;8.13;6.05;;;8.90;99.90;;;;;;2089832;28;20458;-78
2023/03/22 03:51:06;;;;;;;8.07;6.13;;;8.90;99.90;;;;;;2081755;28;20120;-79
2023/03/22 03:52:06;;;;;;;9.25;6.63;;;8.80;99.90;;;;;;2081910;28;20033;-78
2023/03/22 03:53:07;;;;;;;9.23;6.53;;;8.80;99.90;;;;;;2076192;28;20052;-78
2023/03/22 03:54:08;;;;;;;8.40;6.20;;;8.80;99.90;;;;;;2082774;28;20541;-79
2023/03/22 03:55:09;;;;;;;8.73;6.07;;;8.80;99.90;;;;;;2081784;28;20071;-78
2023/03/22 03:56:10;;;;;;;7.82;5.80;;;8.80;99.90;;;;;;2090143;28;20531;-77
2023/03/22 03:57:15;;;;;;;8.13;6.13;;;8.80;99.90;;;;;;2082458;28;20714;-77
2023/03/22 03:58:16;;;;;;;8.82;6.30;;;8.80;99.90;;;;;;2086101;28;20082;-78
2023/03/22 03:59:19;;;;;;;9.32;5.90;;;8.80;99.90;;;;;;2090466;28;20283;-78
2023/03/22 04:00:22;;;;;;;8.65;6.13;;;8.70;99.90;;;;;;2088267;28;20131;-78
2023/03/22 04:01:59;;;;;;;10.43;6.45;;;8.70;99.90;;;;;;2058133;28;20086;-78
2023/03/22 04:03:05;;;;;;;8.75;6.40;;;8.70;99.90;;;;;;2045524;28;20196;-78
2023/03/22 04:04:26;;;;;;;8.43;6.13;;;8.70;99.90;;;;;;2055272;28;20467;-78
2023/03/22 04:05:35;;;;;;;9.60;6.75;;;8.60;99.90;;;;;;2077637;28;20132;-77
2023/03/22 04:06:38;;;;;;;9.90;6.63;;;8.60;99.90;;;;;;2075075;28;20152;-78
2023/03/22 04:07:43;;;;;;;10.73;7.07;;;8.60;99.90;;;;;;2076412;28;20038;-77
2023/03/22 04:08:44;;;;;;;9.63;7.15;;;8.60;99.90;;;;;;2083585;28;20092;-77
2023/03/22 04:09:45;;;;;;;11.02;7.32;;;8.50;99.90;;;;;;2089380;28;20104;-77
2023/03/22 04:10:51;;;;;;;10.70;7.78;;;8.50;99.90;;;;;;2088981;28;20028;-78
2023/03/22 04:11:53;;;;;;;10.70;8.02;;;8.50;99.90;;;;;;2091341;28;20375;-78
2023/03/22 04:12:54;;;;;;;10.48;7.82;;;8.50;99.90;;;;;;2084888;28;20025;-79
2023/03/22 04:13:55;;;;;;;17.42;8.77;;;8.40;99.90;;;;;;2083172;28;20033;-80
2023/03/22 04:14:57;;;;;;;11.10;8.40;;;8.40;99.90;;;;;;2086646;28;20103;-77
2023/03/22 04:16:01;;;;;;;11.48;8.38;;;8.40;99.90;;;;;;2078613;28;20021;-79
2023/03/22 04:17:03;;;;;;;13.23;9.23;;;8.40;99.90;;;;;;2091438;28;20035;-77
2023/03/22 04:18:05;;;;;;;12.82;8.88;;;8.30;99.90;;;;;;2085330;28;20032;-79
2023/03/22 04:19:06;;;;;;;11.45;8.93;;;8.40;99.90;;;;;;2083994;28;20036;-79
2023/03/22 04:20:11;;;;;;;11.80;9.05;;;8.30;99.90;;;;;;2091626;28;20508;-79
2023/03/22 04:21:12;;;;;;;11.90;9.43;;;8.30;99.90;;;;;;2080967;28;20056;-79
2023/03/22 04:22:23;;;;;;;13.20;9.35;;;8.30;99.90;;;;;;2090086;28;20509;-78
2023/03/22 04:23:24;;;;;;;12.00;9.60;;;8.30;99.90;;;;;;2089957;28;20037;-78
2023/03/22 04:24:25;;;;;;;11.65;9.15;;;8.30;99.90;;;;;;2083389;28;20462;-78
2023/03/22 04:25:29;;;;;;;14.02;9.63;;;8.30;99.90;;;;;;2089916;28;20036;-78
2023/03/22 04:26:37;;;;;;;11.70;9.18;;;8.30;99.90;;;;;;2090231;28;20070;-78
2023/03/22 04:27:54;;;;;;;12.98;9.70;;;8.20;99.90;;;;;;2085784;28;20064;-78
2023/03/22 04:28:57;;;;;;;13.23;9.80;;;8.20;99.90;;;;;;2075347;28;20033;-79
2023/03/22 04:29:59;;;;;;;13.13;9.77;;;8.30;99.90;;;;;;2077599;28;20484;-79
2023/03/22 04:31:18;;;;;;;12.05;9.45;;;8.20;99.90;;;;;;2091527;28;20063;-78
2023/03/22 04:32:31;;;;;;;12.23;9.32;;;8.20;99.90;;;;;;2090312;28;20123;-78
2023/03/22 04:33:38;;;;;;;12.38;9.40;;;8.20;99.90;;;;;;2085196;28;20032;-79
2023/03/22 04:34:45;;;;;;;11.52;9.40;;;8.20;99.90;;;;;;2086895;28;20051;-78
2023/03/22 04:35:49;;;;;;;11.40;9.23;;;8.20;99.90;;;;;;2080355;28;20029;-79
2023/03/22 04:36:50;;;;;;;12.30;9.50;;;8.20;99.90;;;;;;2088270;28;20040;-78
2023/03/22 04:38:24;;;;;;;11.82;9.35;;;8.20;99.90;;;;;;2070265;28;20527;-78
2023/03/22 04:39:26;;;;;;;36.85;21.92;;;8.20;99.90;;;;;;2082237;28;20033;-79
2023/03/22 04:40:49;;;;;;;26.77;15.80;;;8.20;99.90;;;;;;2086064;28;20029;-77
2023/03/22 04:41:54;;;;;;;18.20;12.63;;;8.20;99.90;;;;;;2089446;28;20163;-78
2023/03/22 04:42:56;;;;;;;15.77;11.27;;;8.20;99.90;;;;;;2081012;28;20455;-78
2023/03/22 04:44:06;;;;;;;15.25;10.68;;;8.20;99.90;;;;;;2080795;28;20020;-78
2023/03/22 04:45:10;;;;;;;12.55;9.75;;;8.20;99.90;;;;;;2078449;28;20626;-80
2023/03/22 04:46:12;;;;;;;13.68;10.00;;;8.20;99.90;;;;;;2081257;28;20468;-78
2023/03/22 04:47:20;;;;;;;14.65;10.55;;;8.20;99.90;;;;;;2081450;28;20029;-78
2023/03/22 04:48:22;;;;;;;13.20;10.10;;;8.20;99.90;;;;;;2081793;28;20071;-77
2023/03/22 04:49:25;;;;;;;15.20;10.43;;;8.20;99.90;;;;;;2079725;28;20029;-77
2023/03/22 04:50:27;;;;;;;13.07;9.95;;;8.20;99.90;;;;;;2086958;28;20032;-77
2023/03/22 04:51:31;;;;;;;13.27;10.27;;;8.20;99.90;;;;;;2086879;28;20029;-78
2023/03/22 04:52:46;;;;;;;15.85;10.70;;;8.20;99.90;;;;;;2077319;28;20508;-78
2023/03/22 04:53:48;;;;;;;14.75;10.85;;;8.10;99.90;;;;;;2076864;28;20014;-78
2023/03/22 04:54:49;;;;;;;14.23;10.52;;;8.10;99.90;;;;;;2070178;28;20524;-77
2023/03/22 04:55:50;;;;;;;15.13;10.55;;;8.10;99.90;;;;;;2068835;28;20026;-78
2023/03/22 04:56:51;;;;;;;15.52;10.57;;;8.10;99.90;;;;;;2082525;28;20510;-78
2023/03/22 04:57:53;;;;;;;13.70;10.52;;;8.10;99.90;;;;;;2081517;28;20025;-78
2023/03/22 04:58:57;;;;;;;13.25;10.43;;;8.00;99.90;;;;;;2079161;28;20079;-78
2023/03/22 04:59:57;;;;;;;14.07;10.73;;;8.00;99.90;;;;;;2077539;28;20531;-77
2023/03/22 05:00:58;;;;;;;15.15;10.90;;;8.00;99.90;;;;;;2078210;28;20031;-77
2023/03/22 05:01:59;;;;;;;13.68;11.07;;;8.00;99.90;;;;;;2078383;28;20513;-77
2023/03/22 05:03:02;;;;;;;14.85;10.63;;;8.00;99.90;;;;;;2078979;28;20040;-77
2023/03/22 05:04:10;;;;;;;14.27;11.02;;;8.00;99.90;;;;;;2079008;28;20033;-76
2023/03/22 05:05:11;;;;;;;15.20;11.55;;;8.00;99.90;;;;;;2086417;28;20041;-77
2023/03/22 05:06:15;;;;;;;18.90;11.98;;;8.00;99.90;;;;;;2088538;28;20235;-76
2023/03/22 05:07:30;;;;;;;15.63;11.68;;;7.90;99.90;;;;;;2078647;28;20057;-77
2023/03/22 05:08:33;;;;;;;15.10;11.70;;;7.90;99.90;;;;;;2080074;28;20041;-77
2023/03/22 05:09:50;;;;;;;14.60;11.07;;;7.90;99.90;;;;;;2080121;28;20183;-78
2023/03/22 05:10:55;;;;;;;15.25;11.30;;;7.90;99.90;;;;;;2071810;28;20053;-76
2023/03/22 05:11:56;;;;;;;15.75;11.10;;;7.90;99.90;;;;;;2078850;28;20068;-76
2023/03/22 05:13:04;;;;;;;13.65;10.93;;;7.90;99.90;;;;;;2079572;28;20021;-78
2023/03/22 05:14:10;;;;;;;13.90;10.68;;;7.90;99.90;;;;;;2089668;28;20522;-76
2023/03/22 05:15:11;;;;;;;13.63;10.63;;;7.90;99.90;;;;;;2085147;28;20028;-77
2023/03/22 05:16:39;;;;;;;14.57;11.20;;;7.90;99.90;;;;;;2079268;28;20029;-77
2023/03/22 05:17:43;;;;;;;13.50;10.70;;;8.00;99.90;;;;;;2075772;28;20086;-77
2023/03/22 05:18:44;;;;;;;13.30;10.48;;;8.00;99.90;;;;;;2089389;28;20130;-76
2023/03/22 05:19:46;;;;;;;15.63;11.20;;;8.00;99.90;;;;;;2079648;28;20577;-77
2023/03/22 05:20:47;;;;;;;16.40;10.77;;;8.00;99.90;;;;;;2077909;28;20120;-78
2023/03/22 05:21:57;;;;;;;15.23;10.90;;;8.00;99.90;;;;;;2088140;28;20028;-77
2023/03/22 05:23:04;;;;;;;14.70;10.60;;;8.00;99.90;;;;;;2087410;28;20306;-76
2023/03/22 05:24:06;;;;;;;14.73;10.90;;;8.00;99.90;;;;;;2079931;28;20055;-78
2023/03/22 05:25:09;;;;;;;13.52;10.65;;;8.00;99.90;;;;;;2078749;28;20531;-78
2023/03/22 05:26:14;;;;;;;15.48;11.10;;;8.10;99.90;;;;;;2081178;28;20025;-78
2023/03/22 05:27:16;;;;;;;12.77;10.13;;;8.10;99.90;;;;;;2076671;28;20037;-79
2023/03/22 05:28:20;;;;;;;13.82;10.13;;;8.10;99.90;;;;;;2077317;28;20033;-78
2023/03/22 05:29:43;;;;;;;15.00;10.68;;;8.10;99.90;;;;;;2078351;28;20059;-78
2023/03/22 05:30:50;;;;;;;12.70;10.00;;;8.20;99.90;;;;;;2087026;28;20455;-75
2023/03/22 05:32:08;;;;;;;14.00;10.93;;;8.20;99.90;;;;;;2079926;28;20058;-75
2023/03/22 05:33:09;;;;;;;14.10;10.75;;;8.20;99.90;;;;;;2073750;28;20025;-76
2023/03/22 05:34:15;;;;;;;16.75;11.40;;;8.20;99.90;;;;;;2080424;28;20021;-78
2023/03/22 05:35:16;;;;;;;16.00;11.15;;;8.30;99.90;;;;;;2084983;28;20033;-77
2023/03/22 05:36:22;;;;;;;13.18;10.48;;;8.30;99.90;;;;;;2083581;28;20380;-78
2023/03/22 05:37:41;;;;;;;14.52;10.60;;;8.30;99.90;;;;;;2084510;28;20029;-76
2023/03/22 05:38:43;;;;;;;15.05;10.95;;;8.40;99.90;;;;;;2080338;28;20503;-78
2023/03/22 05:39:44;;;;;;;13.32;10.38;;;8.40;99.90;;;;;;2079188;28;20048;-77
2023/03/22 05:40:45;;;;;;;12.88;9.90;;;8.40;99.90;;;;;;2082348;28;20063;-81
2023/03/22 05:41:45;;;;;;;13.23;10.27;;;8.50;99.90;;;;;;2080933;28;20079;-76
2023/03/22 05:42:46;;;;;;;13.35;10.55;;;8.60;99.90;;;;;;2076401;28;20029;-76
2023/03/22 05:43:57;;;;;;;13.93;10.07;;;8.60;99.90;;;;;;2077523;28;20025;-76